Time;durP1;ratioP1;P1;durP2;ratioP2;P2;SDS_P1;SDS_P2;PMS_P1;PMS_P2;Temp;Humidity;BMP_temperature;BMP_pressure;BME280_temperature;BME280_humidity;BME280_pressure;Samples;Min_cycle;Max_cycle;Signal;HPM_P1;HPM_P2
2023/08/06 00:00:56;;;;;;;0.33;0.10;;;;;;;16.65;100.00;98155.00;5096129;28;20271;-75
2023/08/06 00:03:23;;;;;;;0.30;0.20;;;;;;;16.76;100.00;98150.19;5104762;28;20646;-78
2023/08/06 00:05:49;;;;;;;0.43;0.20;;;;;;;16.70;100.00;98143.28;5095955;28;20621;-75
2023/08/06 00:08:17;;;;;;;0.73;0.10;;;;;;;16.61;100.00;98143.13;5069425;28;20264;-75
2023/08/06 00:10:47;;;;;;;0.20;0.20;;;;;;;16.47;100.00;98150.34;5073157;28;20279;-76
2023/08/06 00:13:14;;;;;;;0.10;0.10;;;;;;;16.58;100.00;98140.22;5061805;28;20189;-76
2023/08/06 00:15:40;;;;;;;0.10;0.10;;;;;;;16.56;100.00;98147.81;5070867;28;20700;-76
2023/08/06 00:18:07;;;;;;;0.17;0.17;;;;;;;16.56;100.00;98139.69;5073783;28;20189;-75
2023/08/06 00:20:34;;;;;;;0.47;0.20;;;;;;;16.55;100.00;98155.13;5070780;28;20614;-77
2023/08/06 00:23:00;;;;;;;0.77;0.20;;;;;;;16.66;100.00;98155.78;5070838;28;20189;-75
2023/08/06 00:25:27;;;;;;;0.10;0.10;;;;;;;16.55;100.00;98147.00;5071516;28;20193;-76
2023/08/06 00:27:54;;;;;;;0.20;0.10;;;;;;;16.61;100.00;98142.34;5072938;28;20232;-75
2023/08/06 00:30:21;;;;;;;0.20;0.20;;;;;;;16.58;100.00;98146.44;5069711;28;20197;-77
2023/08/06 00:32:47;;;;;;;0.20;0.10;;;;;;;16.48;100.00;98149.25;5069234;28;20730;-76
2023/08/06 00:35:14;;;;;;;0.20;0.20;;;;;;;16.47;100.00;98138.75;5067899;28;20617;-76
2023/08/06 00:37:41;;;;;;;0.20;0.20;;;;;;;16.47;100.00;98131.44;5066200;28;20235;-75
2023/08/06 00:40:08;;;;;;;0.10;0.10;;;;;;;16.49;100.00;98141.94;5072034;28;20656;-76
2023/08/06 00:42:35;;;;;;;0.93;0.10;;;;;;;16.40;100.00;98157.22;5056683;28;20296;-75
2023/08/06 00:45:02;;;;;;;0.10;0.10;;;;;;;16.36;100.00;98140.81;5071959;28;20254;-76
2023/08/06 00:47:29;;;;;;;0.17;0.17;;;;;;;16.51;100.00;98142.47;5072196;28;20189;-75
2023/08/06 00:49:56;;;;;;;0.20;0.10;;;;;;;16.54;100.00;98142.69;5073209;28;20453;-75
2023/08/06 00:52:22;;;;;;;0.50;0.20;;;;;;;16.56;100.00;98131.59;5057569;28;20610;-76
2023/08/06 00:54:50;;;;;;;0.10;0.10;;;;;;;16.41;100.00;98129.91;5067524;28;20643;-75
2023/08/06 00:57:17;;;;;;;0.10;0.10;;;;;;;16.47;100.00;98123.31;5056538;28;20670;-75
2023/08/06 00:59:44;;;;;;;0.83;0.20;;;;;;;16.53;100.00;98119.44;5052388;28;20193;-75
2023/08/06 01:02:11;;;;;;;0.13;0.13;;;;;;;16.41;100.00;98118.28;5056812;28;20637;-75
2023/08/06 01:04:38;;;;;;;0.10;0.10;;;;;;;16.30;100.00;98123.84;5065665;28;20276;-76
2023/08/06 01:07:33;;;;;;;0.10;0.10;;;;;;;16.28;100.00;98128.72;5059567;28;20243;-75
2023/08/06 01:10:12;;;;;;;0.10;0.10;;;;;;;16.20;100.00;98124.00;5059135;28;20197;-76
2023/08/06 01:12:50;;;;;;;0.10;0.10;;;;;;;16.38;100.00;98121.59;5064827;28;20211;-76
2023/08/06 01:15:21;;;;;;;0.30;0.20;;;;;;;16.24;100.00;98113.41;5051644;28;20205;-76
2023/08/06 01:17:48;;;;;;;0.40;0.20;;;;;;;16.21;100.00;98109.41;5052955;28;20194;-75
2023/08/06 01:20:15;;;;;;;0.10;0.10;;;;;;;16.16;100.00;98104.06;5062386;28;20196;-76
2023/08/06 01:22:41;;;;;;;0.17;0.17;;;;;;;16.11;100.00;98106.84;5053229;28;20211;-76
2023/08/06 01:25:08;;;;;;;0.20;0.20;;;;;;;15.99;100.00;98109.19;5069529;28;20546;-76
2023/08/06 01:27:45;;;;;;;0.53;0.20;;;;;;;15.97;100.00;98107.84;5051449;28;20726;-75
2023/08/06 01:30:17;;;;;;;0.20;0.20;;;;;;;15.85;100.00;98110.97;5060103;28;20252;-76
2023/08/06 01:32:49;;;;;;;0.20;0.20;;;;;;;15.89;100.00;98112.00;5048171;28;20605;-75
2023/08/06 01:35:17;;;;;;;0.17;0.17;;;;;;;15.86;100.00;98109.91;5049459;28;20293;-76
2023/08/06 01:37:44;;;;;;;0.77;0.20;;;;;;;15.72;100.00;98112.47;5043659;28;20271;-77
2023/08/06 01:40:12;;;;;;;1.27;0.40;;;;;;;15.76;100.00;98116.22;5072520;28;20201;-76
2023/08/06 01:42:39;;;;;;;0.20;0.20;;;;;;;15.68;100.00;98103.34;5066580;28;20577;-75
2023/08/06 01:45:08;;;;;;;1.43;0.20;;;;;;;15.66;100.00;98108.25;5072867;28;20197;-75
2023/08/06 01:47:35;;;;;;;0.23;0.23;;;;;;;15.64;100.00;98109.63;5051576;28;20283;-75
2023/08/06 01:50:02;;;;;;;0.30;0.30;;;;;;;15.56;100.00;98102.97;5069088;28;20250;-75
2023/08/06 01:52:29;;;;;;;0.40;0.20;;;;;;;15.60;100.00;98095.09;5071746;28;20219;-75
2023/08/06 01:54:56;;;;;;;0.33;0.33;;;;;;;15.58;100.00;98105.41;5070477;28;20189;-76
2023/08/06 01:57:22;;;;;;;0.20;0.20;;;;;;;15.73;100.00;98089.78;5067193;28;20205;-75
2023/08/06 01:59:49;;;;;;;0.30;0.30;;;;;;;15.75;100.00;98079.53;5060359;28;20185;-76
2023/08/06 02:02:15;;;;;;;0.33;0.30;;;;;;;15.75;100.00;98089.50;5051255;28;20290;-75
2023/08/06 02:04:42;;;;;;;0.20;0.20;;;;;;;15.81;100.00;98074.84;5067358;28;20185;-74
2023/08/06 02:07:09;;;;;;;0.40;0.40;;;;;;;15.73;100.00;98078.19;5082611;28;20245;-76
2023/08/06 02:09:36;;;;;;;0.30;0.30;;;;;;;15.72;100.00;98079.31;5082607;28;20197;-75
2023/08/06 02:12:03;;;;;;;0.20;0.20;;;;;;;15.69;100.00;98071.75;5067157;28;20542;-75
2023/08/06 02:14:30;;;;;;;0.30;0.30;;;;;;;15.70;100.00;98089.56;5062549;28;20207;-76
2023/08/06 02:16:56;;;;;;;0.67;0.40;;;;;;;15.88;100.00;98083.38;5082774;28;20281;-76
2023/08/06 02:19:24;;;;;;;0.30;0.30;;;;;;;15.79;100.00;98090.53;5090038;28;20655;-74
2023/08/06 02:21:51;;;;;;;0.33;0.33;;;;;;;15.71;100.00;98073.09;5070726;28;20224;-76
2023/08/06 02:24:18;;;;;;;0.30;0.30;;;;;;;15.75;100.00;98070.59;5085709;28;20188;-76
2023/08/06 02:26:45;;;;;;;0.33;0.33;;;;;;;15.68;100.00;98073.66;5100781;28;20253;-76
2023/08/06 02:29:12;;;;;;;0.63;0.40;;;;;;;15.80;100.00;98078.66;5095157;28;20215;-76
2023/08/06 02:31:41;;;;;;;0.30;0.30;;;;;;;15.81;100.00;98067.56;5065189;28;20199;-75
2023/08/06 02:34:08;;;;;;;0.50;0.30;;;;;;;15.82;100.00;98066.44;5066231;28;20663;-75
2023/08/06 02:36:34;;;;;;;0.30;0.30;;;;;;;15.83;100.00;98049.16;5095114;28;20273;-75
2023/08/06 02:39:01;;;;;;;1.33;0.47;;;;;;;16.10;100.00;98064.69;5063337;28;20746;-77
2023/08/06 02:41:29;;;;;;;1.00;0.40;;;;;;;15.97;100.00;98056.53;5065499;28;20200;-75
2023/08/06 02:43:56;;;;;;;0.27;0.27;;;;;;;15.94;100.00;98066.03;5062001;28;20208;-75
2023/08/06 02:46:23;;;;;;;0.30;0.30;;;;;;;15.84;100.00;98050.78;5072855;28;20542;-75
2023/08/06 02:48:50;;;;;;;1.17;0.60;;;;;;;15.90;100.00;98062.31;5089215;28;20275;-75
2023/08/06 02:51:17;;;;;;;0.50;0.50;;;;;;;15.89;100.00;98065.28;5069434;28;20229;-76
2023/08/06 02:53:43;;;;;;;0.50;0.50;;;;;;;15.91;100.00;98046.91;5081857;28;20190;-75
2023/08/06 02:56:13;;;;;;;0.43;0.43;;;;;;;15.76;100.00;98053.31;5068130;28;20265;-76
2023/08/06 02:58:50;;;;;;;0.37;0.37;;;;;;;15.94;100.00;98049.00;5072038;28;20206;-75
2023/08/06 03:01:30;;;;;;;0.50;0.40;;;;;;;15.83;100.00;98045.66;5059123;28;20208;-75
2023/08/06 03:04:04;;;;;;;0.50;0.50;;;;;;;15.80;100.00;98051.66;5064248;28;20294;-77
2023/08/06 03:06:35;;;;;;;0.50;0.50;;;;;;;15.89;100.00;98046.38;5074248;28;20253;-76
2023/08/06 03:09:02;;;;;;;0.50;0.50;;;;;;;15.98;100.00;98041.94;5082432;28;20208;-76
2023/08/06 03:11:29;;;;;;;0.63;0.50;;;;;;;15.82;100.00;98038.63;5083160;28;20199;-75
2023/08/06 03:14:02;;;;;;;0.40;0.40;;;;;;;15.89;100.00;98028.28;5084435;28;20212;-76
2023/08/06 03:16:30;;;;;;;0.50;0.50;;;;;;;15.91;100.00;98034.19;5091305;28;20905;-75
2023/08/06 03:18:57;;;;;;;0.60;0.60;;;;;;;16.05;100.00;98034.28;5093800;28;20608;-76
2023/08/06 03:21:24;;;;;;;0.80;0.50;;;;;;;16.00;100.00;98037.84;5093839;28;20693;-76
2023/08/06 03:23:51;;;;;;;0.60;0.60;;;;;;;16.04;100.00;98040.78;5092217;28;20220;-75
2023/08/06 03:26:22;;;;;;;0.60;0.60;;;;;;;15.83;100.00;98038.34;5092503;28;20215;-75
2023/08/06 03:28:48;;;;;;;0.70;0.70;;;;;;;15.96;100.00;98034.09;5093611;28;20192;-75
2023/08/06 03:31:16;;;;;;;0.60;0.60;;;;;;;15.97;100.00;98033.03;5086631;28;20627;-75
2023/08/06 03:33:44;;;;;;;0.60;0.60;;;;;;;16.06;100.00;98022.34;5092176;28;20206;-75
2023/08/06 03:36:15;;;;;;;1.33;0.70;;;;;;;16.03;100.00;98026.47;5084540;28;20642;-76
2023/08/06 03:38:42;;;;;;;0.80;0.80;;;;;;;16.10;100.00;98016.06;5081124;28;20204;-75
2023/08/06 03:41:11;;;;;;;0.80;0.80;;;;;;;16.07;100.00;98016.66;5091824;28;20206;-75
2023/08/06 03:43:38;;;;;;;0.90;0.90;;;;;;;16.11;100.00;98003.38;5088554;28;20280;-76
2023/08/06 03:46:09;;;;;;;0.93;0.93;;;;;;;16.15;100.00;98016.00;5093155;28;20204;-76
2023/08/06 03:48:36;;;;;;;1.00;1.00;;;;;;;16.20;100.00;98007.00;5088805;28;20216;-76
2023/08/06 03:51:03;;;;;;;0.83;0.83;;;;;;;16.11;100.00;97996.06;5091910;28;20193;-75
2023/08/06 03:53:30;;;;;;;0.87;0.87;;;;;;;16.20;100.00;97988.88;5093153;28;20616;-74
2023/08/06 03:55:59;;;;;;;0.90;0.90;;;;;;;16.27;100.00;97986.63;5090508;28;20239;-75
2023/08/06 03:58:27;;;;;;;1.03;1.03;;;;;;;16.15;100.00;97988.16;5090094;28;20206;-76
2023/08/06 04:01:00;;;;;;;1.10;1.00;;;;;;;16.23;100.00;97996.44;5088006;28;20186;-75
2023/08/06 04:03:32;;;;;;;1.00;1.00;;;;;;;16.12;100.00;97989.56;5092089;28;20631;-76
2023/08/06 04:06:00;;;;;;;1.33;1.00;;;;;;;16.20;100.00;97988.88;5085734;28;20299;-75
2023/08/06 04:08:27;;;;;;;2.00;1.20;;;;;;;16.10;100.00;97985.53;5092752;28;20189;-75
2023/08/06 04:10:54;;;;;;;1.40;1.07;;;;;;;16.27;100.00;97989.34;5088971;28;20724;-76
2023/08/06 04:13:21;;;;;;;1.10;1.00;;;;;;;16.25;100.00;97996.13;5088528;28;20224;-76
2023/08/06 04:15:49;;;;;;;0.90;0.90;;;;;;;16.24;100.00;98002.59;5094078;28;20194;-74
2023/08/06 04:18:15;;;;;;;1.43;0.90;;;;;;;16.36;100.00;98002.97;5087322;28;20228;-75
2023/08/06 04:20:44;;;;;;;1.00;0.90;;;;;;;16.49;100.00;98012.19;5092821;28;20706;-75
2023/08/06 04:23:11;;;;;;;1.13;1.03;;;;;;;16.42;100.00;98015.31;5092679;28;20188;-76
2023/08/06 04:25:38;;;;;;;1.00;0.90;;;;;;;16.45;100.00;98011.19;5084614;28;20202;-75
2023/08/06 04:28:05;;;;;;;1.20;1.10;;;;;;;16.53;100.00;98021.31;5086504;28;20196;-75
2023/08/06 04:30:32;;;;;;;1.03;1.03;;;;;;;16.43;100.00;98019.59;5086736;28;20647;-75
2023/08/06 04:32:59;;;;;;;1.20;1.10;;;;;;;16.51;100.00;98018.94;5089591;28;20675;-76
2023/08/06 04:35:27;;;;;;;1.33;1.10;;;;;;;16.53;100.00;98018.63;5089294;28;20207;-76
2023/08/06 04:37:53;;;;;;;0.87;0.87;;;;;;;16.57;100.00;98023.13;5088006;28;20602;-75
2023/08/06 04:40:20;;;;;;;1.10;1.00;;;;;;;16.48;100.00;98016.78;5089928;28;20627;-76
2023/08/06 04:42:47;;;;;;;1.20;1.10;;;;;;;16.51;100.00;98016.22;5091945;28;20231;-75
2023/08/06 04:45:13;;;;;;;1.17;1.07;;;;;;;16.63;100.00;98013.88;5090667;28;20242;-75
2023/08/06 04:47:40;;;;;;;1.10;1.10;;;;;;;16.59;100.00;98014.75;5091564;28;20662;-76
2023/08/06 04:50:07;;;;;;;0.90;0.90;;;;;;;16.53;100.00;98011.31;5090365;28;20219;-74
2023/08/06 04:52:33;;;;;;;1.07;1.00;;;;;;;16.68;100.00;98018.38;5088008;28;20189;-74
2023/08/06 04:55:00;;;;;;;1.43;0.80;;;;;;;16.75;100.00;98007.97;5091477;28;20201;-74
2023/08/06 04:57:27;;;;;;;1.17;1.07;;;;;;;16.68;100.00;98013.78;5092756;28;20222;-75
2023/08/06 04:59:53;;;;;;;1.20;1.10;;;;;;;16.64;100.00;98010.06;5092834;28;20272;-73
2023/08/06 05:02:20;;;;;;;1.20;1.20;;;;;;;16.80;100.00;98013.28;5093020;28;20184;-74
2023/08/06 05:04:47;;;;;;;1.00;1.00;;;;;;;16.83;100.00;98009.19;5092853;28;20543;-75
2023/08/06 05:07:13;;;;;;;1.10;1.10;;;;;;;16.85;100.00;98017.78;5084083;28;20262;-75
2023/08/06 05:09:40;;;;;;;1.50;1.07;;;;;;;16.86;100.00;98019.41;5064487;28;20213;-74
2023/08/06 05:12:07;;;;;;;1.10;1.00;;;;;;;16.86;100.00;98019.41;5074034;28;20197;-75
2023/08/06 05:14:34;;;;;;;0.90;0.90;;;;;;;16.77;100.00;98015.78;5068619;28;20236;-74
2023/08/06 05:17:02;;;;;;;1.30;1.20;;;;;;;16.80;100.00;98004.41;5063982;28;20221;-74
2023/08/06 05:19:28;;;;;;;0.93;0.93;;;;;;;16.81;100.00;98014.09;5059009;28;20830;-74
2023/08/06 05:21:55;;;;;;;0.90;0.90;;;;;;;16.79;100.00;98009.00;5058393;28;20193;-74
2023/08/06 05:24:22;;;;;;;0.93;0.93;;;;;;;16.98;100.00;98006.97;5066585;28;20201;-74
2023/08/06 05:26:49;;;;;;;1.57;1.00;;;;;;;16.91;100.00;98022.81;5063981;28;20215;-76
2023/08/06 05:29:16;;;;;;;2.63;1.20;;;;;;;16.99;100.00;98014.00;5061902;28;20204;-74
2023/08/06 05:31:43;;;;;;;1.23;1.10;;;;;;;17.06;100.00;98005.50;5060981;28;20305;-75
2023/08/06 05:34:09;;;;;;;1.20;1.10;;;;;;;17.09;100.00;98016.50;5064672;28;20197;-75
2023/08/06 05:36:36;;;;;;;1.30;1.20;;;;;;;17.03;100.00;98020.41;5066397;28;20704;-74
2023/08/06 05:39:03;;;;;;;1.03;1.03;;;;;;;17.11;100.00;98024.34;5064588;28;20224;-74
2023/08/06 05:41:30;;;;;;;2.47;1.10;;;;;;;17.16;100.00;98025.06;5062397;28;20193;-74
2023/08/06 05:43:56;;;;;;;1.37;1.27;;;;;;;17.10;100.00;98017.31;5058007;28;20273;-75
2023/08/06 05:46:23;;;;;;;1.03;1.00;;;;;;;17.28;100.00;98021.81;5059307;28;20220;-76
2023/08/06 05:48:51;;;;;;;1.10;1.00;;;;;;;17.27;100.00;98017.50;5066846;28;20641;-74
2023/08/06 05:51:17;;;;;;;2.07;1.17;;;;;;;17.40;100.00;98016.72;5063486;28;20272;-74
2023/08/06 05:53:45;;;;;;;1.10;1.00;;;;;;;17.39;100.00;98019.72;5065241;28;20613;-75
2023/08/06 05:56:12;;;;;;;1.10;1.10;;;;;;;17.37;100.00;98016.50;5069137;28;20229;-74
2023/08/06 05:58:39;;;;;;;1.10;1.10;;;;;;;17.44;100.00;98025.84;5076763;28;20234;-74
2023/08/06 06:01:06;;;;;;;1.07;0.93;;;;;;;17.37;100.00;98022.72;5064918;28;20193;-74
2023/08/06 06:03:32;;;;;;;1.03;1.03;;;;;;;17.21;100.00;98029.56;5069113;28;20193;-74
2023/08/06 06:06:01;;;;;;;1.17;0.93;;;;;;;17.13;100.00;98025.63;5056543;28;20727;-75
2023/08/06 06:08:27;;;;;;;1.00;1.00;;;;;;;17.11;100.00;98033.28;5068062;28;20639;-74
2023/08/06 06:10:55;;;;;;;1.20;1.10;;;;;;;17.14;100.00;98038.06;5058371;28;20201;-75
2023/08/06 06:13:22;;;;;;;0.83;0.83;;;;;;;17.14;100.00;98037.25;5058815;28;20276;-75
2023/08/06 06:15:48;;;;;;;0.90;0.90;;;;;;;17.08;100.00;98039.25;5052033;28;20284;-75
2023/08/06 06:18:15;;;;;;;0.90;0.90;;;;;;;17.22;100.00;98043.91;5051784;28;20240;-74
2023/08/06 06:20:42;;;;;;;0.93;0.87;;;;;;;17.15;100.00;98028.84;5058608;28;20190;-74
2023/08/06 06:23:08;;;;;;;0.90;0.90;;;;;;;17.16;100.00;98040.47;5059820;28;20222;-74
2023/08/06 06:25:35;;;;;;;1.37;0.90;;;;;;;17.33;100.00;98019.03;5059002;28;20263;-74
2023/08/06 06:28:02;;;;;;;1.27;1.07;;;;;;;17.45;100.00;98015.81;5058378;28;20251;-74
2023/08/06 06:30:28;;;;;;;0.93;0.90;;;;;;;17.44;100.00;98015.00;5064086;28;20288;-75
2023/08/06 06:32:55;;;;;;;0.90;0.90;;;;;;;17.64;100.00;98013.00;5063592;28;20225;-76
2023/08/06 06:35:21;;;;;;;0.80;0.80;;;;;;;17.69;100.00;98016.38;5067573;28;20194;-74
2023/08/06 06:37:49;;;;;;;0.70;0.70;;;;;;;17.83;100.00;98006.31;5067888;28;20209;-76
2023/08/06 06:40:15;;;;;;;0.73;0.73;;;;;;;17.72;100.00;97990.63;5055518;28;20202;-74
2023/08/06 06:42:42;;;;;;;0.73;0.73;;;;;;;17.85;100.00;97984.34;5061758;28;20683;-74
2023/08/06 06:45:09;;;;;;;0.70;0.70;;;;;;;18.10;100.00;97982.94;5062610;28;20193;-75
2023/08/06 06:47:36;;;;;;;1.33;0.70;;;;;;;18.24;100.00;97989.91;5060735;28;20540;-74
2023/08/06 06:50:03;;;;;;;0.63;0.63;;;;;;;18.36;100.00;98003.69;5059568;28;20710;-74
2023/08/06 06:52:30;;;;;;;0.57;0.57;;;;;;;18.49;100.00;98002.03;5058065;28;20191;-75
2023/08/06 06:54:56;;;;;;;1.80;0.70;;;;;;;18.44;100.00;98024.63;5054945;28;20221;-75
2023/08/06 06:57:23;;;;;;;0.70;0.70;;;;;;;18.53;100.00;98022.00;5060546;28;20265;-77
2023/08/06 06:59:49;;;;;;;1.70;0.60;;;;;;;18.59;100.00;98017.25;5055353;28;20725;-76
2023/08/06 07:02:16;;;;;;;1.17;0.70;;;;;;;18.49;100.00;98018.28;5062085;28;20211;-75
2023/08/06 07:04:43;;;;;;;0.60;0.60;;;;;;;18.65;100.00;98026.88;5060737;28;20219;-74
2023/08/06 07:07:10;;;;;;;0.70;0.70;;;;;;;18.83;100.00;98012.28;5064719;28;20257;-74
2023/08/06 07:09:36;;;;;;;0.50;0.50;;;;;;;18.82;100.00;98019.63;5053278;28;20722;-75
2023/08/06 07:12:03;;;;;;;2.30;1.23;;;;;;;18.92;100.00;98018.56;5073765;28;20190;-75
2023/08/06 07:14:30;;;;;;;0.50;0.50;;;;;;;19.00;100.00;98017.78;5064626;28;20226;-75
2023/08/06 07:16:57;;;;;;;0.40;0.40;;;;;;;19.12;100.00;98026.16;5070092;28;20613;-76
2023/08/06 07:19:24;;;;;;;0.60;0.60;;;;;;;18.92;100.00;98030.22;5075009;28;20244;-75
2023/08/06 07:21:50;;;;;;;0.50;0.50;;;;;;;18.89;100.00;98032.75;5068783;28;20582;-75
2023/08/06 07:24:18;;;;;;;0.50;0.50;;;;;;;19.20;100.00;98036.25;5074003;28;20208;-76
2023/08/06 07:26:44;;;;;;;0.60;0.60;;;;;;;19.01;100.00;98027.53;5074632;28;20193;-75
2023/08/06 07:29:11;;;;;;;0.53;0.53;;;;;;;19.33;100.00;98034.50;5074234;28;20279;-74
2023/08/06 07:31:37;;;;;;;0.60;0.60;;;;;;;19.45;100.00;98029.34;5072942;28;21298;-75
2023/08/06 07:34:04;;;;;;;0.83;0.60;;;;;;;19.42;100.00;98034.53;5072878;28;20638;-76
2023/08/06 07:36:31;;;;;;;0.80;0.60;;;;;;;19.39;100.00;98019.69;5067311;28;20231;-76
2023/08/06 07:38:58;;;;;;;0.73;0.60;;;;;;;19.53;100.00;98014.97;5060225;28;20655;-77
2023/08/06 07:41:25;;;;;;;0.70;0.70;;;;;;;19.82;100.00;98014.38;5073743;28;20227;-76
2023/08/06 07:43:51;;;;;;;0.87;0.70;;;;;;;19.69;100.00;98010.66;5073759;28;20204;-75
2023/08/06 07:46:18;;;;;;;0.70;0.70;;;;;;;19.68;100.00;97995.50;5067296;28;20278;-76
2023/08/06 07:48:45;;;;;;;0.70;0.70;;;;;;;19.74;100.00;98009.72;5068546;28;20200;-76
2023/08/06 07:51:11;;;;;;;0.70;0.70;;;;;;;19.93;100.00;98009.41;5072876;28;20681;-77
2023/08/06 07:53:38;;;;;;;1.03;0.80;;;;;;;20.07;100.00;98010.84;5073762;28;20277;-75
2023/08/06 07:56:05;;;;;;;0.73;0.73;;;;;;;20.09;100.00;98008.63;5073270;28;20716;-75
2023/08/06 07:58:31;;;;;;;0.67;0.67;;;;;;;20.29;100.00;98015.34;5073570;28;20240;-75
2023/08/06 08:00:58;;;;;;;0.90;0.90;;;;;;;20.15;100.00;98015.50;5071608;28;20220;-76
2023/08/06 08:03:26;;;;;;;1.20;0.87;;;;;;;20.06;100.00;98009.25;5066888;28;20193;-76
2023/08/06 08:05:57;;;;;;;0.87;0.87;;;;;;;19.96;100.00;98006.06;5073603;28;20197;-78
2023/08/06 08:08:24;;;;;;;1.00;1.00;;;;;;;20.14;100.00;98000.31;5100003;28;20239;-76
2023/08/06 08:10:51;;;;;;;0.93;0.93;;;;;;;20.20;100.00;98004.44;5105552;28;20191;-75
2023/08/06 08:13:18;;;;;;;0.80;0.80;;;;;;;20.23;100.00;98006.53;5095716;28;20656;-76
2023/08/06 08:15:44;;;;;;;0.97;0.97;;;;;;;20.42;100.00;98003.50;5102173;28;20188;-75
2023/08/06 08:18:11;;;;;;;1.00;1.00;;;;;;;20.49;100.00;98006.50;5102211;28;20247;-75
2023/08/06 08:20:38;;;;;;;1.00;1.00;;;;;;;20.01;100.00;98005.91;5107440;28;20585;-76
2023/08/06 08:23:04;;;;;;;0.93;0.93;;;;;;;20.09;100.00;98019.50;5100533;28;20286;-75
2023/08/06 08:25:31;;;;;;;1.20;1.10;;;;;;;20.02;100.00;98019.16;5105069;28;20539;-77
2023/08/06 08:27:58;;;;;;;1.27;1.27;;;;;;;20.35;100.00;97989.56;5109545;28;20227;-75
2023/08/06 08:30:25;;;;;;;1.23;1.13;;;;;;;20.54;100.00;97991.94;5106826;28;20195;-75
2023/08/06 08:32:52;;;;;;;1.30;1.20;;;;;;;20.29;100.00;97987.34;5101458;28;20619;-75
2023/08/06 08:35:19;;;;;;;1.00;1.00;;;;;;;20.58;100.00;97995.59;5105865;28;20658;-76
2023/08/06 08:37:46;;;;;;;1.20;1.20;;;;;;;20.63;100.00;97990.00;5097665;28;20220;-74
2023/08/06 08:40:14;;;;;;;1.27;1.17;;;;;;;20.94;100.00;98001.44;5109823;28;20281;-75
2023/08/06 08:42:40;;;;;;;1.20;1.10;;;;;;;21.11;100.00;98011.44;5093092;28;20192;-74
2023/08/06 08:45:13;;;;;;;1.30;1.20;;;;;;;21.17;100.00;98020.28;5099043;28;20198;-77
2023/08/06 08:47:43;;;;;;;1.47;1.37;;;;;;;20.62;100.00;98007.47;5102193;28;20196;-75
2023/08/06 08:50:14;;;;;;;1.40;1.30;;;;;;;20.54;100.00;98011.78;5097540;28;20203;-74
2023/08/06 08:52:42;;;;;;;1.40;1.30;;;;;;;20.52;100.00;98013.25;5086228;28;20260;-74
2023/08/06 08:55:10;;;;;;;1.23;1.13;;;;;;;20.24;100.00;98012.78;5095669;28;20185;-75
2023/08/06 08:57:36;;;;;;;1.53;1.40;;;;;;;20.38;100.00;98016.16;5099693;28;20213;-74
2023/08/06 09:00:04;;;;;;;1.67;1.50;;;;;;;20.32;100.00;98006.56;5095382;28;20190;-77
2023/08/06 09:02:32;;;;;;;1.50;1.40;;;;;;;20.39;100.00;98017.72;5096367;28;20555;-75
2023/08/06 09:05:03;;;;;;;1.57;1.47;;;;;;;20.23;100.00;98006.53;5105018;28;20560;-75
2023/08/06 09:07:51;;;;;;;1.60;1.50;;;;;;;19.83;100.00;98012.47;5075258;28;20641;-74
2023/08/06 09:10:19;;;;;;;1.93;1.53;;;;;;;19.50;100.00;98029.19;5090285;28;20196;-76
2023/08/06 09:12:46;;;;;;;1.70;1.60;;;;;;;19.32;100.00;98039.16;5085964;28;20645;-76
2023/08/06 09:15:13;;;;;;;1.50;1.40;;;;;;;19.23;100.00;98030.16;5091996;28;20224;-74
2023/08/06 09:17:40;;;;;;;1.80;1.70;;;;;;;19.02;100.00;98033.78;5091805;28;20280;-74
2023/08/06 09:20:14;;;;;;;1.70;1.60;;;;;;;19.11;100.00;98050.88;5089034;28;20225;-76
2023/08/06 09:22:41;;;;;;;1.93;1.77;;;;;;;19.20;100.00;98038.97;5089279;28;20189;-76
2023/08/06 09:25:13;;;;;;;2.33;1.70;;;;;;;19.18;100.00;98051.22;5091616;28;20307;-75
2023/08/06 09:27:40;;;;;;;2.07;1.87;;;;;;;19.11;100.00;98050.88;5086966;28;20241;-75
2023/08/06 09:30:07;;;;;;;2.33;1.80;;;;;;;19.00;100.00;98053.06;5086829;28;20660;-74
2023/08/06 09:32:52;;;;;;;1.60;1.50;;;;;;;18.92;100.00;98061.97;5092031;28;20214;-75
2023/08/06 09:35:19;;;;;;;2.33;1.60;;;;;;;18.95;100.00;98060.53;5086698;28;20198;-75
2023/08/06 09:37:46;;;;;;;3.10;1.83;;;;;;;18.85;100.00;98059.69;5091245;28;20229;-76
2023/08/06 09:40:29;;;;;;;1.87;1.60;;;;;;;18.76;100.00;98066.19;5090118;28;20539;-75
2023/08/06 09:42:57;;;;;;;1.93;1.60;;;;;;;18.57;100.00;98071.03;5091734;28;20273;-75
2023/08/06 09:45:28;;;;;;;1.83;1.73;;;;;;;18.46;100.00;98063.09;5091686;28;20201;-75
2023/08/06 09:48:05;;;;;;;1.87;1.73;;;;;;;18.37;100.00;98072.28;5090468;28;20558;-74
2023/08/06 09:50:36;;;;;;;1.67;1.57;;;;;;;18.55;100.00;98065.91;5083737;28;20547;-75
2023/08/06 09:53:04;;;;;;;1.97;1.77;;;;;;;18.46;100.00;98060.41;5089751;28;20197;-75
2023/08/06 09:55:32;;;;;;;1.80;1.70;;;;;;;18.50;100.00;98057.84;5084034;28;20526;-75
2023/08/06 09:57:59;;;;;;;1.60;1.50;;;;;;;18.40;100.00;98064.34;5091233;28;20684;-75
2023/08/06 10:00:28;;;;;;;2.10;1.60;;;;;;;18.49;100.00;98051.63;5091324;28;20205;-74
2023/08/06 10:02:58;;;;;;;1.70;1.60;;;;;;;18.60;100.00;98049.50;5088595;28;20195;-75
2023/08/06 10:05:26;;;;;;;1.50;1.40;;;;;;;18.55;100.00;98054.25;5085602;28;20214;-75
2023/08/06 10:07:53;;;;;;;2.07;1.60;;;;;;;18.56;100.00;98051.25;5086525;28;21302;-77
2023/08/06 10:10:20;;;;;;;1.70;1.60;;;;;;;18.61;100.00;98053.81;5084690;28;20560;-77
2023/08/06 10:12:49;;;;;;;1.80;1.70;;;;;;;18.53;100.00;98059.97;5087489;28;20709;-74
2023/08/06 10:15:19;;;;;;;1.77;1.67;;;;;;;18.55;100.00;98052.34;5091818;28;20244;-74
2023/08/06 10:17:47;;;;;;;2.70;1.80;;;;;;;18.42;100.00;98051.28;5090233;28;20223;-74
2023/08/06 10:20:18;;;;;;;1.50;1.40;;;;;;;18.39;100.00;98061.91;5091874;28;20209;-75
2023/08/06 10:22:45;;;;;;;1.40;1.30;;;;;;;18.39;100.00;98070.06;5090943;28;20221;-75
2023/08/06 10:25:16;;;;;;;1.93;1.77;;;;;;;18.46;100.00;98068.53;5093789;28;20181;-75
2023/08/06 10:27:49;;;;;;;1.83;1.73;;;;;;;18.47;100.00;98072.03;5094034;28;20308;-75
2023/08/06 10:30:24;;;;;;;1.50;1.40;;;;;;;18.68;100.00;98075.88;5095763;28;20193;-75
2023/08/06 10:32:52;;;;;;;1.53;1.43;;;;;;;18.56;100.00;98069.41;5094063;28;20222;-78
2023/08/06 10:35:38;;;;;;;2.20;1.30;;;;;;;18.54;100.00;98077.06;5095559;28;20201;-75
2023/08/06 10:38:05;;;;;;;1.60;1.50;;;;;;;18.49;100.00;98064.38;5095442;28;20221;-76
2023/08/06 10:40:32;;;;;;;1.80;1.67;;;;;;;18.37;100.00;98070.38;5095055;28;20949;-76
2023/08/06 10:43:00;;;;;;;1.67;1.57;;;;;;;18.39;100.00;98065.44;5095095;28;20277;-75
2023/08/06 10:45:28;;;;;;;1.50;1.40;;;;;;;18.47;100.00;98080.19;5094192;28;20191;-75
2023/08/06 10:47:57;;;;;;;1.40;1.30;;;;;;;18.61;100.00;98088.28;5092351;28;20218;-75
2023/08/06 10:50:24;;;;;;;1.50;1.40;;;;;;;18.76;100.00;98082.47;5095123;28;20190;-75
2023/08/06 10:52:52;;;;;;;1.57;1.47;;;;;;;19.07;100.00;98086.00;5093801;28;20203;-74
2023/08/06 10:55:23;;;;;;;1.90;1.30;;;;;;;19.50;100.00;98091.66;5095148;28;20278;-75
2023/08/06 10:57:50;;;;;;;2.40;1.50;;;;;;;19.88;100.00;98091.88;5094741;28;20204;-75
2023/08/06 11:00:17;;;;;;;2.23;1.60;;;;;;;20.19;100.00;98094.50;5088537;28;20206;-74
2023/08/06 11:02:44;;;;;;;1.30;1.20;;;;;;;20.58;100.00;98097.06;5092809;28;20213;-74
2023/08/06 11:05:11;;;;;;;1.77;1.50;;;;;;;21.18;100.00;98106.31;5091865;28;20854;-75
2023/08/06 11:07:38;;;;;;;1.53;1.43;;;;;;;21.31;100.00;98103.38;5073094;28;20239;-75
2023/08/06 11:10:07;;;;;;;1.50;1.40;;;;;;;21.42;100.00;98101.88;5069342;28;20654;-74
2023/08/06 11:12:34;;;;;;;1.50;1.40;;;;;;;21.64;100.00;98105.47;5073638;28;20203;-75
2023/08/06 11:15:01;;;;;;;1.50;1.40;;;;;;;21.48;100.00;98110.66;5070190;28;20275;-74
2023/08/06 11:17:28;;;;;;;1.23;1.17;;;;;;;21.40;100.00;98097.88;5067193;28;20222;-75
2023/08/06 11:19:55;;;;;;;2.20;1.53;;;;;;;21.01;100.00;98093.47;5070999;28;20212;-75
2023/08/06 11:22:22;;;;;;;1.48;1.38;;;;;;;21.09;100.00;98098.09;5058338;28;20272;-75
2023/08/06 11:24:49;;;;;;;1.70;1.60;;;;;;;21.03;100.00;98096.69;5045023;28;20561;-74
2023/08/06 11:27:17;;;;;;;1.50;1.40;;;;;;;20.98;100.00;98103.13;5073952;28;20605;-74